Time;durP1;ratioP1;P1;durP2;ratioP2;P2;SDS_P1;SDS_P2;PMS_P1;PMS_P2;Temp;Humidity;BMP_temperature;BMP_pressure;BME280_temperature;BME280_humidity;BME280_pressure;Samples;Min_cycle;Max_cycle;Signal;HPM_P1;HPM_P2
2021/09/09 00:01:48;;;;;;;18.45;13.35;;;;;;;24.50;79.74;100497.09;5013814;28;20049;-65
2021/09/09 00:04:16;;;;;;;18.73;12.77;;;;;;;24.53;79.58;100507.53;5013409;28;20060;-66
2021/09/09 00:06:43;;;;;;;15.57;11.60;;;;;;;24.54;79.58;100520.41;5013670;28;20054;-65
2021/09/09 00:09:11;;;;;;;22.95;12.50;;;;;;;24.63;78.99;100514.31;5024634;28;20492;-65
2021/09/09 00:11:38;;;;;;;15.00;12.35;;;;;;;24.59;79.98;100519.16;5033062;28;20057;-65
2021/09/09 00:14:07;;;;;;;18.73;13.13;;;;;;;24.57;80.23;100505.50;5048817;28;20057;-65
2021/09/09 00:16:39;;;;;;;15.75;12.90;;;;;;;24.51;80.50;100510.75;5051826;28;20053;-65
2021/09/09 00:19:06;;;;;;;17.35;12.27;;;;;;;24.63;79.35;100509.47;5052131;28;20045;-66
2021/09/09 00:21:34;;;;;;;16.83;12.35;;;;;;;24.57;79.94;100504.69;5033117;28;20053;-65
2021/09/09 00:24:03;;;;;;;19.05;12.07;;;;;;;24.66;80.04;100500.19;5037099;28;20133;-65
2021/09/09 00:26:30;;;;;;;14.15;11.48;;;;;;;24.58;79.87;100495.84;5031096;28;20304;-65
2021/09/09 00:28:58;;;;;;;16.70;11.55;;;;;;;24.64;79.65;100485.72;5037090;28;20048;-66
2021/09/09 00:31:25;;;;;;;15.07;11.98;;;;;;;24.40;80.73;100479.06;5037016;28;20416;-65
2021/09/09 00:33:52;;;;;;;17.23;11.02;;;;;;;24.42;80.37;100471.00;5036050;28;20408;-65
2021/09/09 00:36:20;;;;;;;19.85;11.88;;;;;;;24.45;80.04;100464.53;5036703;28;20064;-65
2021/09/09 00:38:48;;;;;;;15.07;10.70;;;;;;;24.39;80.42;100465.41;5037071;28;20121;-65
2021/09/09 00:41:15;;;;;;;16.00;11.20;;;;;;;24.46;80.04;100471.00;5036909;28;20045;-65
2021/09/09 00:43:42;;;;;;;18.40;10.55;;;;;;;24.37;80.35;100471.44;5032383;28;20647;-65
2021/09/09 00:46:09;;;;;;;18.45;11.00;;;;;;;24.50;79.55;100464.09;5027792;28;20057;-65
2021/09/09 00:48:38;;;;;;;17.63;11.15;;;;;;;24.45;79.53;100473.00;5022697;28;20045;-65
2021/09/09 00:51:05;;;;;;;17.38;10.98;;;;;;;24.52;79.30;100474.94;5036088;28;20050;-65
2021/09/09 00:53:34;;;;;;;16.65;11.40;;;;;;;24.49;79.35;100468.16;5036537;28;20065;-64
2021/09/09 00:56:01;;;;;;;18.70;11.60;;;;;;;24.33;80.70;100456.59;5035063;28;20072;-66
2021/09/09 00:58:28;;;;;;;15.35;11.13;;;;;;;24.40;80.18;100465.00;5036616;28;20066;-65
2021/09/09 01:00:56;;;;;;;16.05;11.57;;;;;;;24.36;79.93;100467.03;5035301;28;20053;-66
2021/09/09 01:03:23;;;;;;;17.55;11.68;;;;;;;24.31;80.07;100478.72;5020236;28;20065;-65
2021/09/09 01:05:50;;;;;;;19.13;11.82;;;;;;;24.37;79.65;100481.91;5016465;28;20063;-65
2021/09/09 01:08:18;;;;;;;17.48;11.63;;;;;;;24.31;80.00;100489.16;5032428;28;20049;-65
2021/09/09 01:10:45;;;;;;;16.38;11.75;;;;;;;24.43;79.74;100489.50;5025021;28;20068;-65
2021/09/09 01:13:12;;;;;;;15.05;11.07;;;;;;;24.45;79.17;100486.25;5032605;28;20041;-65
2021/09/09 01:15:43;;;;;;;14.57;11.10;;;;;;;24.33;79.52;100486.75;5056036;28;20048;-66
2021/09/09 01:18:13;;;;;;;16.90;11.57;;;;;;;24.20;80.54;100491.25;5056117;28;20053;-65
2021/09/09 01:20:41;;;;;;;14.80;11.73;;;;;;;24.23;80.11;100499.66;5055910;28;20049;-66
2021/09/09 01:23:08;;;;;;;17.05;11.80;;;;;;;24.22;80.25;100495.25;5056148;28;20045;-65
2021/09/09 01:25:36;;;;;;;12.65;10.38;;;;;;;24.19;80.24;100501.72;5045470;28;20049;-66
2021/09/09 01:28:03;;;;;;;16.25;11.93;;;;;;;24.13;80.20;100499.75;5017735;28;20501;-65
2021/09/09 01:30:31;;;;;;;17.73;11.70;;;;;;;23.88;81.62;100501.84;5034383;28;20060;-65
2021/09/09 01:33:01;;;;;;;19.25;11.70;;;;;;;24.01;80.78;100489.75;5035815;28;20053;-65
2021/09/09 01:35:28;;;;;;;15.82;11.02;;;;;;;24.09;80.32;100490.50;5034029;28;20064;-66
2021/09/09 01:37:55;;;;;;;14.00;10.93;;;;;;;24.01;80.76;100488.94;5035631;28;20077;-65
2021/09/09 01:40:30;;;;;;;17.60;11.05;;;;;;;24.20;79.68;100499.72;5030984;28;20390;-66
2021/09/09 01:42:58;;;;;;;14.43;10.90;;;;;;;24.06;80.28;100500.56;5033964;28;20405;-66
2021/09/09 01:45:27;;;;;;;12.93;11.30;;;;;;;23.97;80.60;100502.97;5033076;28;20041;-65
2021/09/09 01:47:54;;;;;;;13.20;11.10;;;;;;;24.06;80.24;100503.38;5035892;28;20500;-66
2021/09/09 01:50:22;;;;;;;14.18;11.15;;;;;;;24.04;80.38;100508.59;5034575;28;20052;-65
2021/09/09 01:52:49;;;;;;;16.45;11.07;;;;;;;24.06;80.34;100509.00;5017478;28;20057;-67
2021/09/09 01:55:16;;;;;;;17.33;11.75;;;;;;;24.09;80.16;100513.03;5035603;28;20052;-65
2021/09/09 01:57:44;;;;;;;16.73;11.80;;;;;;;24.17;79.44;100518.22;5035293;28;20053;-65
2021/09/09 02:00:11;;;;;;;19.77;12.13;;;;;;;24.06;80.06;100511.81;5025293;28;20044;-66
2021/09/09 02:02:40;;;;;;;16.52;12.18;;;;;;;24.18;79.33;100511.34;5015616;28;20544;-66
2021/09/09 02:05:09;;;;;;;23.58;13.38;;;;;;;23.98;80.12;100515.84;5014141;28;20075;-66
2021/09/09 02:07:37;;;;;;;17.27;12.60;;;;;;;23.99;80.09;100511.84;5015148;28;20076;-66
2021/09/09 02:10:05;;;;;;;22.88;14.27;;;;;;;23.67;81.98;100502.72;4998020;28;20058;-66
2021/09/09 02:12:33;;;;;;;19.92;14.05;;;;;;;23.60;82.58;100507.56;5027842;28;20053;-65
2021/09/09 02:15:02;;;;;;;17.75;13.60;;;;;;;23.61;82.98;100506.34;5055193;28;20041;-65
2021/09/09 02:17:29;;;;;;;18.30;14.13;;;;;;;23.76;81.81;100517.16;5054878;28;20107;-65
2021/09/09 02:19:56;;;;;;;17.85;14.00;;;;;;;23.82;81.55;100506.28;5054807;28;20056;-65
2021/09/09 02:22:24;;;;;;;18.10;13.15;;;;;;;23.97;80.92;100514.25;5054846;28;20159;-65
2021/09/09 02:24:51;;;;;;;15.85;13.32;;;;;;;24.07;79.43;100513.44;5055284;28;20532;-65
2021/09/09 02:27:18;;;;;;;19.25;13.68;;;;;;;24.01;79.91;100509.44;5053797;28;20053;-60
2021/09/09 02:29:46;;;;;;;19.33;13.73;;;;;;;23.90;80.58;100517.09;5034302;28;20425;-60
2021/09/09 02:32:13;;;;;;;16.80;13.43;;;;;;;23.85;80.74;100506.25;5035208;28;20401;-60
2021/09/09 02:34:40;;;;;;;22.33;14.35;;;;;;;23.91;80.57;100513.06;5034701;28;20493;-60
2021/09/09 02:37:08;;;;;;;21.17;13.38;;;;;;;23.93;80.67;100521.09;5034814;28;20050;-61
2021/09/09 02:39:40;;;;;;;17.88;12.95;;;;;;;23.89;80.94;100520.31;5034883;28;20057;-60
2021/09/09 02:42:08;;;;;;;16.35;13.63;;;;;;;23.89;80.74;100520.31;5034272;28;20049;-60
2021/09/09 02:44:36;;;;;;;16.58;13.05;;;;;;;24.00;80.60;100521.91;5034898;28;20042;-60
2021/09/09 02:47:03;;;;;;;18.38;14.18;;;;;;;23.90;80.80;100522.72;5034071;28;20402;-61
2021/09/09 02:49:31;;;;;;;21.10;14.15;;;;;;;24.01;80.53;100517.06;5033085;28;20067;-60
2021/09/09 02:51:58;;;;;;;19.92;14.18;;;;;;;23.95;80.68;100516.69;5034668;28;20058;-61
2021/09/09 02:54:25;;;;;;;18.38;14.30;;;;;;;24.03;80.11;100521.09;5034752;28;20053;-61
2021/09/09 02:56:53;;;;;;;17.25;13.63;;;;;;;23.97;80.52;100522.69;5033803;28;20041;-61
2021/09/09 02:59:20;;;;;;;16.88;13.07;;;;;;;24.06;79.97;100522.28;5014221;28;20054;-61
2021/09/09 03:01:47;;;;;;;17.52;13.98;;;;;;;24.04;80.35;100524.72;5014636;28;20054;-60
2021/09/09 03:04:15;;;;;;;20.30;14.85;;;;;;;24.00;80.34;100521.91;5014468;28;20046;-60
2021/09/09 03:06:42;;;;;;;17.83;13.30;;;;;;;24.03;80.06;100511.84;5014611;28;20263;-61
2021/09/09 03:09:10;;;;;;;20.48;15.00;;;;;;;23.95;80.35;100508.25;5013051;28;20065;-61
2021/09/09 03:11:38;;;;;;;19.85;15.60;;;;;;;23.92;80.53;100508.25;5013734;28;20053;-61
2021/09/09 03:14:05;;;;;;;21.58;15.00;;;;;;;23.93;80.38;100507.03;5036290;28;20054;-61
2021/09/09 03:16:32;;;;;;;19.88;15.68;;;;;;;23.83;80.71;100517.13;5033060;28;20053;-61
2021/09/09 03:19:00;;;;;;;17.38;14.88;;;;;;;23.88;80.44;100518.72;5034171;28;20049;-61
2021/09/09 03:21:27;;;;;;;19.55;15.52;;;;;;;23.94;80.02;100508.63;5034719;28;20057;-60
2021/09/09 03:23:55;;;;;;;20.92;15.25;;;;;;;23.80;80.96;100509.50;5033166;28;20037;-60
2021/09/09 03:26:22;;;;;;;19.08;15.50;;;;;;;23.81;81.16;100504.69;5032849;28;20049;-60
2021/09/09 03:28:49;;;;;;;20.35;14.57;;;;;;;23.90;80.64;100505.03;5034081;28;20057;-61
2021/09/09 03:31:16;;;;;;;18.92;14.35;;;;;;;23.92;80.27;100499.81;5016458;28;20068;-60
2021/09/09 03:33:44;;;;;;;21.70;14.73;;;;;;;23.95;79.99;100496.19;5013905;28;20057;-60
2021/09/09 03:36:11;;;;;;;18.67;15.45;;;;;;;23.89;80.13;100492.97;5014230;28;20402;-61
2021/09/09 03:38:39;;;;;;;17.65;15.27;;;;;;;23.89;80.17;100492.97;5019284;28;20524;-61
2021/09/09 03:41:08;;;;;;;22.00;15.32;;;;;;;23.90;80.40;100486.13;5033861;28;20057;-60
2021/09/09 03:43:35;;;;;;;24.05;16.08;;;;;;;23.89;80.52;100484.53;5033643;28;20050;-61
2021/09/09 03:46:02;;;;;;;21.48;17.05;;;;;;;23.82;80.58;100486.56;5032758;28;20072;-61
2021/09/09 03:48:30;;;;;;;17.75;15.32;;;;;;;23.79;80.93;100493.84;5031509;28;20120;-61
2021/09/09 03:50:57;;;;;;;19.08;15.57;;;;;;;23.85;80.79;100483.75;5033758;28;20060;-61
2021/09/09 03:53:25;;;;;;;22.00;15.80;;;;;;;23.87;80.58;100494.63;5033594;28;20045;-61
2021/09/09 03:55:52;;;;;;;23.98;15.05;;;;;;;23.88;80.30;100497.03;5033971;28;20065;-61
2021/09/09 03:58:19;;;;;;;21.80;16.50;;;;;;;23.88;80.28;100488.56;5033730;28;20499;-61
2021/09/09 04:00:47;;;;;;;23.60;15.35;;;;;;;23.85;80.41;100495.00;5033711;28;20049;-61
2021/09/09 04:03:14;;;;;;;21.92;15.60;;;;;;;23.83;80.48;100493.81;5031416;28;20054;-62
2021/09/09 04:05:42;;;;;;;20.77;16.52;;;;;;;23.86;80.62;100493.00;5027547;28;20175;-61
2021/09/09 04:08:09;;;;;;;21.17;17.48;;;;;;;23.96;79.97;100492.13;5028473;28;20579;-61
2021/09/09 04:10:36;;;;;;;23.70;16.65;;;;;;;23.82;80.46;100490.19;5030540;28;20527;-61
2021/09/09 04:13:03;;;;;;;18.38;15.65;;;;;;;23.80;80.30;100489.03;5039072;28;20540;-61
2021/09/09 04:15:32;;;;;;;20.70;17.02;;;;;;;23.67;81.07;100485.03;5030357;28;20046;-61
2021/09/09 04:18:00;;;;;;;24.63;18.20;;;;;;;23.65;80.73;100491.06;5030687;28;20136;-61
2021/09/09 04:20:27;;;;;;;22.52;17.98;;;;;;;23.62;80.88;100486.28;5031155;28;20049;-60
2021/09/09 04:22:55;;;;;;;24.23;16.63;;;;;;;23.62;80.85;100477.84;5032266;28;20060;-61
2021/09/09 04:25:22;;;;;;;22.48;17.40;;;;;;;23.63;80.86;100478.63;5032893;28;20052;-61
2021/09/09 04:27:49;;;;;;;20.90;17.23;;;;;;;23.58;81.23;100482.66;5032841;28;20061;-61
2021/09/09 04:30:16;;;;;;;22.13;17.23;;;;;;;23.61;80.97;100479.03;5031984;28;20066;-61
2021/09/09 04:32:44;;;;;;;21.33;16.10;;;;;;;23.62;80.89;100482.66;5032425;28;20058;-61
2021/09/09 04:35:11;;;;;;;19.10;15.63;;;;;;;23.59;80.86;100478.63;5032032;28;20048;-61
2021/09/09 04:37:38;;;;;;;21.90;16.95;;;;;;;23.53;81.20;100474.66;5031438;28;20061;-61
2021/09/09 04:40:06;;;;;;;19.70;17.58;;;;;;;23.51;81.33;100479.88;5032259;28;20064;-62
2021/09/09 04:42:33;;;;;;;21.48;16.73;;;;;;;23.45;81.76;100477.88;5032414;28;20057;-61
2021/09/09 04:45:01;;;;;;;23.10;16.98;;;;;;;23.53;81.17;100471.03;5013397;28;20049;-62
2021/09/09 04:47:28;;;;;;;24.15;15.35;;;;;;;23.63;80.74;100471.00;5012998;28;20547;-60
2021/09/09 04:49:55;;;;;;;23.80;16.75;;;;;;;23.57;80.45;100467.00;5011367;28;20050;-61
2021/09/09 04:52:22;;;;;;;25.42;19.35;;;;;;;23.62;80.29;100463.78;5014893;28;20049;-61
2021/09/09 04:54:53;;;;;;;25.08;18.98;;;;;;;23.57;80.10;100471.81;5030759;28;20038;-62
2021/09/09 04:57:21;;;;;;;19.92;17.40;;;;;;;23.64;80.32;100461.31;5033009;28;20046;-61
2021/09/09 04:59:49;;;;;;;22.17;17.20;;;;;;;23.66;79.89;100464.53;5013476;28;20125;-61
2021/09/09 05:02:16;;;;;;;23.27;19.17;;;;;;;23.59;80.04;100467.38;5020488;28;20057;-61
2021/09/09 05:04:44;;;;;;;19.92;17.83;;;;;;;23.45;80.57;100466.66;5018961;28;20053;-61
2021/09/09 05:07:11;;;;;;;21.88;19.52;;;;;;;23.39;81.03;100467.06;5022022;28;20046;-62
2021/09/09 05:09:39;;;;;;;21.98;19.17;;;;;;;23.41;80.98;100463.84;5024650;28;20061;-60
2021/09/09 05:12:06;;;;;;;26.73;19.38;;;;;;;23.40;81.06;100471.47;5036185;28;20045;-61
2021/09/09 05:14:35;;;;;;;22.30;18.75;;;;;;;23.39;80.72;100467.06;5055355;28;20353;-61
2021/09/09 05:17:02;;;;;;;24.05;17.92;;;;;;;23.29;81.27;100473.50;5045769;28;20049;-61
2021/09/09 05:19:30;;;;;;;23.17;18.73;;;;;;;23.33;81.12;100465.06;5034351;28;20053;-61
2021/09/09 05:21:57;;;;;;;26.45;19.02;;;;;;;23.39;80.46;100463.44;5035494;28;20397;-66
2021/09/09 05:24:25;;;;;;;24.33;18.70;;;;;;;23.33;80.09;100473.47;5042643;28;20041;-66
2021/09/09 05:26:52;;;;;;;22.38;19.98;;;;;;;23.40;80.58;100470.66;5036172;28;20046;-62
2021/09/09 05:29:22;;;;;;;21.15;18.92;;;;;;;23.57;79.83;100472.63;5024160;28;20057;-62
2021/09/09 05:31:49;;;;;;;;;;;;;;;23.43;80.09;100476.28;5036313;28;20385;-62
2021/09/09 05:34:17;;;;;;;24.10;19.05;;;;;;;23.46;79.64;100474.66;5035664;28;19932;-61
2021/09/09 05:36:44;;;;;;;24.00;20.02;;;;;;;23.34;80.52;100475.09;5035477;28;20097;-62
2021/09/09 05:39:11;;;;;;;27.00;20.38;;;;;;;23.37;80.30;100486.34;5033694;28;20060;-62
2021/09/09 05:41:38;;;;;;;25.10;21.60;;;;;;;23.32;80.56;100483.13;5033903;28;20046;-66
2021/09/09 05:44:06;;;;;;;24.58;20.70;;;;;;;23.45;79.93;100492.72;5035699;28;20076;-66
2021/09/09 05:46:33;;;;;;;27.25;21.35;;;;;;;23.47;79.76;100500.78;5035376;28;20061;-66
2021/09/09 05:49:01;;;;;;;25.23;21.05;;;;;;;23.38;80.18;100509.59;5019587;28;20061;-62
2021/09/09 05:51:28;;;;;;;26.15;21.98;;;;;;;23.48;80.02;100524.88;5033211;28;20072;-61
2021/09/09 05:53:55;;;;;;;29.55;24.08;;;;;;;23.47;79.91;100526.09;5033896;28;20052;-60
2021/09/09 05:56:22;;;;;;;24.25;19.73;;;;;;;23.55;79.80;100522.03;5034474;28;20068;-62
2021/09/09 05:58:51;;;;;;;26.00;20.00;;;;;;;23.53;79.57;100522.44;5035179;28;20046;-60
2021/09/09 06:01:18;;;;;;;25.58;21.95;;;;;;;23.29;80.11;100529.72;5028185;28;20658;-62
2021/09/09 06:03:46;;;;;;;28.35;24.23;;;;;;;22.67;82.35;100536.09;5020387;28;20068;-61
2021/09/09 06:06:16;;;;;;;29.58;25.23;;;;;;;22.78;83.35;100531.31;5034952;28;20045;-62
2021/09/09 06:08:44;;;;;;;35.90;31.20;;;;;;;23.03;82.43;100524.47;5007771;28;20138;-61
2021/09/09 06:11:11;;;;;;;42.20;32.88;;;;;;;23.23;81.85;100538.94;5015596;28;20065;-62
2021/09/09 06:13:38;;;;;;;39.70;34.50;;;;;;;23.26;81.44;100530.50;5027785;28;20056;-62
2021/09/09 06:16:06;;;;;;;30.55;25.80;;;;;;;23.35;81.23;100533.72;5024778;28;20049;-61
2021/09/09 06:18:34;;;;;;;29.67;22.80;;;;;;;23.30;81.60;100534.13;5033189;28;20521;-61
2021/09/09 06:21:02;;;;;;;28.45;23.67;;;;;;;23.34;81.15;100537.72;5028594;28;20107;-62
2021/09/09 06:23:29;;;;;;;30.50;24.95;;;;;;;23.39;81.07;100544.97;5029487;28;20053;-60
2021/09/09 06:26:12;;;;;;;27.27;23.15;;;;;;;23.52;80.63;100537.69;5018424;28;20048;-59
2021/09/09 06:28:39;;;;;;;32.13;22.85;;;;;;;23.43;80.25;100540.16;5032543;28;20041;-61
2021/09/09 06:31:07;;;;;;;23.83;20.10;;;;;;;23.79;79.28;100540.84;5029968;28;20054;-63
2021/09/09 06:33:34;;;;;;;22.33;19.90;;;;;;;24.04;76.78;100541.59;5033222;28;20055;-61
2021/09/09 06:36:01;;;;;;;26.55;21.58;;;;;;;24.20;75.73;100544.75;5027706;28;20065;-62
2021/09/09 06:38:29;;;;;;;25.73;22.00;;;;;;;24.30;75.43;100547.47;5024336;28;20057;-63
2021/09/09 06:40:56;;;;;;;22.48;19.98;;;;;;;24.14;75.28;100543.56;5030013;28;20581;-68
2021/09/09 06:43:23;;;;;;;25.50;20.13;;;;;;;24.16;74.89;100550.41;5033228;28;20049;-66
2021/09/09 06:45:50;;;;;;;26.10;20.15;;;;;;;24.08;75.13;100548.81;5031912;28;20689;-67
2021/09/09 06:48:18;;;;;;;25.52;21.02;;;;;;;23.97;75.41;100562.06;5028523;28;20515;-68
2021/09/09 06:50:45;;;;;;;31.60;21.25;;;;;;;24.17;75.36;100562.44;5028408;28;20049;-66
2021/09/09 06:53:12;;;;;;;27.17;20.52;;;;;;;24.03;75.81;100574.56;5031227;28;20054;-66
2021/09/09 06:55:39;;;;;;;23.67;20.10;;;;;;;23.92;76.27;100564.53;5025851;28;20054;-67
2021/09/09 06:58:07;;;;;;;24.95;21.77;;;;;;;23.75;77.46;100562.56;5032456;28;20046;-65
2021/09/09 07:00:34;;;;;;;24.40;19.77;;;;;;;23.91;76.75;100574.16;5031816;28;20049;-66
2021/09/09 07:03:02;;;;;;;22.88;18.17;;;;;;;24.20;75.38;100565.22;5027439;28;20604;-65
2021/09/09 07:05:29;;;;;;;25.85;20.10;;;;;;;24.38;74.54;100565.16;5018961;28;20095;-66
2021/09/09 07:07:57;;;;;;;31.75;24.98;;;;;;;24.18;75.20;100570.47;5025375;28;20048;-65
2021/09/09 07:10:24;;;;;;;27.60;20.80;;;;;;;24.11;75.49;100570.50;5031118;28;20045;-65
2021/09/09 07:12:52;;;;;;;28.45;19.95;;;;;;;23.88;76.64;100572.16;5039033;28;20045;-65
2021/09/09 07:15:19;;;;;;;26.20;21.02;;;;;;;24.18;75.06;100572.50;5036499;28;20049;-65
2021/09/09 07:17:51;;;;;;;26.95;20.45;;;;;;;23.91;76.10;100572.16;5033646;28;20199;-66
2021/09/09 07:20:18;;;;;;;25.85;21.08;;;;;;;23.85;76.34;100568.16;5015552;28;20053;-66
2021/09/09 07:22:46;;;;;;;26.13;20.50;;;;;;;24.03;75.85;100568.94;5033046;28;20045;-66
2021/09/09 07:25:13;;;;;;;25.30;19.30;;;;;;;24.06;75.61;100570.13;5032912;28;20400;-69
2021/09/09 07:27:40;;;;;;;26.17;20.48;;;;;;;23.89;76.01;100570.94;5028276;28;20045;-65
2021/09/09 07:30:08;;;;;;;23.05;18.95;;;;;;;23.96;76.16;100573.75;5030342;28;20058;-65
2021/09/09 07:32:37;;;;;;;26.83;20.27;;;;;;;23.88;76.49;100566.53;5031422;28;20061;-61
2021/09/09 07:35:04;;;;;;;26.42;20.40;;;;;;;23.89;76.80;100570.94;5032855;28;20038;-62
2021/09/09 07:37:32;;;;;;;24.58;20.13;;;;;;;23.84;76.54;100572.19;5033027;28;20049;-61
2021/09/09 07:40:00;;;;;;;22.33;17.48;;;;;;;23.99;75.87;100575.75;5032329;28;20049;-61
2021/09/09 07:42:27;;;;;;;25.15;18.88;;;;;;;24.35;73.76;100575.22;5032345;28;20382;-60
2021/09/09 07:44:54;;;;;;;22.60;19.10;;;;;;;24.01;74.83;100576.97;5009667;28;20708;-61
2021/09/09 07:47:24;;;;;;;26.02;18.75;;;;;;;24.30;73.88;100567.19;5011810;28;20103;-60
2021/09/09 07:49:52;;;;;;;21.67;17.52;;;;;;;24.32;73.55;100575.25;5031218;28;20049;-61
2021/09/09 07:52:19;;;;;;;24.67;18.00;;;;;;;24.23;73.75;100577.69;5032694;28;20064;-61
2021/09/09 07:54:46;;;;;;;24.85;18.63;;;;;;;24.26;72.63;100576.88;5033319;28;20061;-61
2021/09/09 07:57:13;;;;;;;22.70;18.20;;;;;;;24.37;72.41;100569.97;5032902;28;20049;-63
2021/09/09 07:59:41;;;;;;;22.08;18.52;;;;;;;24.31;72.45;100576.44;5032118;28;20057;-66
2021/09/09 08:02:08;;;;;;;22.70;19.08;;;;;;;24.16;73.32;100566.47;5031418;28;20120;-66
2021/09/09 08:04:36;;;;;;;24.27;18.48;;;;;;;24.20;73.09;100570.09;5031070;28;20061;-66
2021/09/09 08:07:04;;;;;;;23.08;18.48;;;;;;;24.25;72.70;100575.28;5033366;28;20056;-66
2021/09/09 08:09:31;;;;;;;25.67;18.98;;;;;;;23.97;74.56;100586.63;5032912;28;20041;-65
2021/09/09 08:11:58;;;;;;;26.13;18.63;;;;;;;23.99;75.08;100579.38;5032353;28;20049;-66
2021/09/09 08:14:25;;;;;;;23.60;19.15;;;;;;;23.96;75.24;100585.00;5033656;28;20041;-65
2021/09/09 08:16:53;;;;;;;25.13;18.67;;;;;;;23.90;75.97;100584.59;5031260;28;20604;-66
2021/09/09 08:19:20;;;;;;;26.77;20.17;;;;;;;23.84;76.07;100582.63;5030863;28;20045;-68
2021/09/09 08:21:47;;;;;;;24.15;19.60;;;;;;;24.03;75.29;100579.38;5012900;28;20494;-65
2021/09/09 08:24:15;;;;;;;27.17;19.60;;;;;;;24.04;75.49;100587.41;5030897;28;20037;-66
2021/09/09 08:26:42;;;;;;;26.38;20.48;;;;;;;24.03;75.54;100590.63;5032744;28;20520;-66
2021/09/09 08:29:09;;;;;;;24.70;18.83;;;;;;;24.09;75.31;100589.00;5032282;28;20061;-66
2021/09/09 08:31:37;;;;;;;29.63;20.48;;;;;;;24.03;75.39;100583.00;5031365;28;20453;-65
2021/09/09 08:34:05;;;;;;;23.30;19.63;;;;;;;24.15;75.09;100590.19;5029104;28;20053;-65
2021/09/09 08:36:32;;;;;;;35.20;23.05;;;;;;;24.14;75.23;100589.41;5026925;28;20064;-68
2021/09/09 08:39:00;;;;;;;31.20;23.15;;;;;;;24.04;75.60;100593.03;5028690;28;20056;-66
2021/09/09 08:41:27;;;;;;;31.17;21.42;;;;;;;23.92;76.27;100587.03;5034175;28;20045;-65
2021/09/09 08:43:54;;;;;;;28.92;20.15;;;;;;;24.02;75.89;100592.66;5036936;28;20049;-65
2021/09/09 08:46:21;;;;;;;31.27;21.48;;;;;;;24.00;76.24;100597.09;5035798;28;20045;-65
2021/09/09 08:48:49;;;;;;;31.35;23.63;;;;;;;24.02;75.76;100597.47;5036073;28;20060;-66
2021/09/09 08:51:17;;;;;;;31.00;23.88;;;;;;;24.15;75.10;100593.00;5034902;28;20049;-65
2021/09/09 08:53:44;;;;;;;27.00;20.23;;;;;;;24.21;74.71;100597.81;5036587;28;20083;-65
2021/09/09 08:56:15;;;;;;;24.48;19.80;;;;;;;24.18;74.78;100598.63;5032593;28;20048;-65
2021/09/09 08:58:43;;;;;;;25.45;19.73;;;;;;;24.15;75.09;100604.25;5033832;28;20045;-65
2021/09/09 09:01:18;;;;;;;28.20;21.42;;;;;;;24.06;75.26;100604.69;5035959;28;20045;-64
2021/09/09 09:03:52;;;;;;;29.23;19.13;;;;;;;24.05;75.60;100611.53;5034796;28;20045;-65
2021/09/09 09:06:25;;;;;;;27.67;18.95;;;;;;;24.13;75.23;100601.06;5035878;28;20046;-65
2021/09/09 09:08:57;;;;;;;26.50;18.20;;;;;;;24.16;75.44;100609.50;5035329;28;20060;-65
2021/09/09 09:11:26;;;;;;;22.60;17.80;;;;;;;23.94;75.69;100609.91;5035587;28;20049;-65
2021/09/09 09:13:53;;;;;;;21.23;18.00;;;;;;;23.90;75.79;100618.38;5049656;28;20060;-65
2021/09/09 09:16:22;;;;;;;25.35;19.15;;;;;;;23.94;76.53;100609.91;5044848;28;20300;-65
2021/09/09 09:18:49;;;;;;;24.80;18.65;;;;;;;24.11;75.40;100603.50;5035313;28;20407;-64
2021/09/09 09:21:19;;;;;;;22.75;17.13;;;;;;;24.18;75.32;100600.66;5035440;28;20441;-64
2021/09/09 09:23:51;;;;;;;22.05;17.48;;;;;;;24.08;76.23;100598.66;5035457;28;20083;-65
2021/09/09 09:26:26;;;;;;;23.80;17.15;;;;;;;24.27;75.66;100595.34;5036201;28;20053;-65
2021/09/09 09:28:55;;;;;;;24.50;19.08;;;;;;;24.48;74.46;100601.69;5035661;28;20500;-65
2021/09/09 09:31:27;;;;;;;25.42;19.85;;;;;;;24.65;73.79;100600.00;5033047;28;20049;-61
2021/09/09 09:33:59;;;;;;;25.92;18.42;;;;;;;24.48;74.09;100596.06;5023208;28;20053;-60
2021/09/09 09:36:36;;;;;;;24.63;16.88;;;;;;;24.50;74.29;100604.91;5032338;28;20056;-60
2021/09/09 09:39:19;;;;;;;23.13;16.25;;;;;;;24.66;73.77;100607.25;5034858;28;20508;-61
2021/09/09 09:41:53;;;;;;;22.02;15.93;;;;;;;24.60;73.90;100603.22;5030094;28;20049;-62
2021/09/09 09:44:40;;;;;;;19.40;15.30;;;;;;;24.59;74.13;100603.66;5034769;28;20049;-61
2021/09/09 09:47:09;;;;;;;19.48;15.27;;;;;;;24.68;73.98;100604.00;5030925;28;20045;-61
2021/09/09 09:49:39;;;;;;;23.08;14.82;;;;;;;24.76;73.59;100599.97;5040893;28;20056;-60
2021/09/09 09:52:08;;;;;;;23.13;14.57;;;;;;;24.87;73.37;100600.69;5029978;28;20049;-60
2021/09/09 09:54:35;;;;;;;18.60;14.45;;;;;;;24.81;73.13;100605.19;5031210;28;20053;-60
2021/09/09 09:57:02;;;;;;;20.05;14.90;;;;;;;25.01;72.82;100606.22;5034650;28;20049;-60
2021/09/09 09:59:30;;;;;;;19.80;14.35;;;;;;;25.18;71.88;100603.28;5033959;28;20522;-60
2021/09/09 10:02:00;;;;;;;17.88;14.40;;;;;;;24.97;72.73;100609.06;5032657;28;20057;-62
2021/09/09 10:04:28;;;;;;;19.30;14.00;;;;;;;25.06;72.35;100603.78;5032669;28;20061;-62
2021/09/09 10:06:57;;;;;;;17.83;13.63;;;;;;;25.19;72.31;100609.72;5033607;28;20183;-60
2021/09/09 10:09:24;;;;;;;20.25;13.32;;;;;;;25.11;72.42;100599.72;5033344;28;20041;-63
2021/09/09 10:11:51;;;;;;;17.35;13.43;;;;;;;25.26;71.26;100602.00;5025485;28;20072;-66
2021/09/09 10:14:22;;;;;;;20.10;13.10;;;;;;;25.43;71.17;100601.09;5035730;28;20052;-61
2021/09/09 10:16:51;;;;;;;17.58;13.52;;;;;;;25.35;70.78;100602.31;5034107;28;20054;-60
2021/09/09 10:19:23;;;;;;;16.20;12.80;;;;;;;25.19;71.12;100609.72;5033568;28;20416;-61
2021/09/09 10:21:53;;;;;;;16.90;12.52;;;;;;;25.14;71.33;100601.72;5033695;28;20049;-61
2021/09/09 10:24:29;;;;;;;15.63;12.85;;;;;;;25.26;71.43;100595.56;5030689;28;20045;-60
2021/09/09 10:27:27;;;;;;;17.05;12.48;;;;;;;25.43;70.83;100597.47;5029057;28;20048;-61
2021/09/09 10:30:04;;;;;;;15.43;12.77;;;;;;;25.50;70.14;100600.22;5030870;28;20064;-61
2021/09/09 10:32:31;;;;;;;22.33;13.63;;;;;;;25.78;68.90;100593.50;5032742;28;20048;-61
2021/09/09 10:35:31;;;;;;;16.55;13.20;;;;;;;25.83;68.23;100599.47;5029386;28;20064;-60
2021/09/09 10:38:11;;;;;;;18.65;13.48;;;;;;;25.91;68.50;100586.88;5033342;28;20642;-61
2021/09/09 10:40:39;;;;;;;19.25;12.80;;;;;;;26.05;67.55;100583.94;5016500;28;20053;-62
2021/09/09 10:43:14;;;;;;;18.42;12.07;;;;;;;26.01;67.43;100593.66;5033176;28;20045;-62
2021/09/09 10:45:44;;;;;;;16.80;14.27;;;;;;;26.15;66.54;100587.88;5028803;28;20060;-61
2021/09/09 10:48:14;;;;;;;16.70;11.77;;;;;;;26.01;64.96;100585.19;5027439;28;20045;-62
2021/09/09 10:50:59;;;;;;;14.57;9.68;;;;;;;26.16;63.98;100587.44;5033411;28;20049;-63
2021/09/09 10:53:33;;;;;;;18.60;9.52;;;;;;;26.26;63.64;100589.31;5017047;28;20666;-62
2021/09/09 10:56:18;;;;;;;11.02;8.25;;;;;;;26.36;62.27;100596.06;5025572;28;20037;-63
2021/09/09 10:58:46;;;;;;;13.20;8.40;;;;;;;26.49;61.95;100591.44;5049405;28;20045;-62
2021/09/09 11:01:14;;;;;;;11.23;8.50;;;;;;;26.67;61.34;100584.34;5029022;28;20780;-62
2021/09/09 11:03:49;;;;;;;18.73;13.48;;;;;;;26.33;60.87;100582.78;5027603;28;20077;-63
2021/09/09 11:06:22;;;;;;;11.95;9.15;;;;;;;26.44;60.79;100581.44;5028630;28;20058;-63
2021/09/09 11:08:52;;;;;;;13.30;7.43;;;;;;;26.62;59.59;100584.78;5012944;28;20042;-63
2021/09/09 11:11:24;;;;;;;10.23;6.32;;;;;;;26.78;59.07;100583.41;5031061;28;20064;-62
2021/09/09 11:13:56;;;;;;;9.52;6.50;;;;;;;26.81;58.29;100577.69;5046889;28;20050;-63
2021/09/09 11:16:25;;;;;;;13.70;8.25;;;;;;;26.84;58.37;100578.84;5051070;28;20049;-60